Time;durP1;ratioP1;P1;durP2;ratioP2;P2;SDS_P1;SDS_P2;PMS_P1;PMS_P2;Temp;Humidity;BMP_temperature;BMP_pressure;BME280_temperature;BME280_humidity;BME280_pressure;Samples;Min_cycle;Max_cycle;Signal;HPM_P1;HPM_P2
2020/12/15 00:01:34;;;;;;;13.70;7.38;;;7.00;94.70;;;;;;10330070;28;20311;-71
2020/12/15 00:06:35;;;;;;;11.55;6.75;;;7.10;94.70;;;;;;10328574;28;20050;-71
2020/12/15 00:11:37;;;;;;;11.85;7.18;;;7.10;94.80;;;;;;10328701;28;20050;-71
2020/12/15 00:16:39;;;;;;;13.32;7.47;;;7.20;94.80;;;;;;10318557;28;20137;-71
2020/12/15 00:21:42;;;;;;;10.52;7.03;;;7.20;94.90;;;;;;10318657;28;20077;-71
2020/12/15 00:26:44;;;;;;;12.90;7.32;;;7.30;94.80;;;;;;10329203;28;20054;-71
2020/12/15 00:31:46;;;;;;;13.63;6.68;;;7.40;95.10;;;;;;10322428;28;20086;-71
2020/12/15 00:36:48;;;;;;;12.32;7.60;;;7.40;95.00;;;;;;10298732;28;20052;-71
2020/12/15 00:41:49;;;;;;;11.52;7.68;;;7.50;95.00;;;;;;10302158;28;20129;-71
2020/12/15 00:46:51;;;;;;;12.82;7.82;;;7.50;95.20;;;;;;10289527;28;20051;-71
2020/12/15 00:51:52;;;;;;;14.95;8.40;;;7.50;95.20;;;;;;10313979;28;20078;-71
2020/12/15 00:56:54;;;;;;;10.90;7.65;;;7.50;95.20;;;;;;10328369;28;20053;-71
2020/12/15 01:02:03;;;;;;;12.93;7.90;;;7.50;95.50;;;;;;10326614;28;20053;-71
2020/12/15 01:07:04;;;;;;;12.05;7.97;;;7.60;95.60;;;;;;10325211;28;20050;-71
2020/12/15 01:12:09;;;;;;;12.63;7.50;;;7.50;95.40;;;;;;10301387;28;20502;-71
2020/12/15 01:17:11;;;;;;;10.48;6.90;;;7.50;95.50;;;;;;10296809;28;20054;-71
2020/12/15 01:22:13;;;;;;;11.27;7.50;;;7.50;95.70;;;;;;10307191;28;20050;-71
2020/12/15 01:27:14;;;;;;;11.40;6.65;;;7.60;96.00;;;;;;10300716;28;20055;-71
2020/12/15 01:32:16;;;;;;;9.68;6.63;;;7.50;95.70;;;;;;10313525;28;20046;-71
2020/12/15 01:37:19;;;;;;;14.38;8.85;;;7.60;96.00;;;;;;10325774;28;20046;-71
2020/12/15 01:42:20;;;;;;;31.60;17.35;;;7.70;96.70;;;;;;10306012;28;20073;-71
2020/12/15 01:47:22;;;;;;;32.13;16.55;;;7.60;97.30;;;;;;10303084;28;20085;-71
2020/12/15 01:52:27;;;;;;;14.95;9.20;;;7.60;97.70;;;;;;10303529;28;20281;-71
2020/12/15 01:57:29;;;;;;;14.93;9.60;;;7.60;97.90;;;;;;10311029;28;20137;-71
2020/12/15 02:02:30;;;;;;;14.00;8.43;;;7.60;97.80;;;;;;10308996;28;20073;-71
2020/12/15 02:07:32;;;;;;;13.95;9.60;;;7.60;98.00;;;;;;10314281;28;20054;-71
2020/12/15 02:12:33;;;;;;;15.70;11.43;;;7.50;98.20;;;;;;10316706;28;20482;-71
2020/12/15 02:17:35;;;;;;;16.42;11.60;;;7.50;98.80;;;;;;10321340;28;20138;-70
2020/12/15 02:22:36;;;;;;;18.08;11.65;;;7.50;99.10;;;;;;10319656;28;20078;-71
2020/12/15 02:27:40;;;;;;;15.18;10.93;;;7.50;99.40;;;;;;10298360;28;20050;-70
2020/12/15 02:32:42;;;;;;;17.00;11.68;;;7.40;99.80;;;;;;10317798;28;20502;-71
2020/12/15 02:37:44;;;;;;;17.65;12.32;;;7.30;99.90;;;;;;10331704;28;20046;-71
2020/12/15 02:42:46;;;;;;;17.23;11.00;;;7.20;99.90;;;;;;10342491;28;20380;-71
2020/12/15 02:47:47;;;;;;;19.08;13.75;;;7.30;99.90;;;;;;10301147;28;20090;-71
2020/12/15 02:52:49;;;;;;;15.93;11.38;;;7.40;99.90;;;;;;10289534;28;20117;-70
2020/12/15 02:57:51;;;;;;;24.25;14.73;;;7.40;99.90;;;;;;10314398;28;20092;-70
2020/12/15 03:02:52;;;;;;;20.23;13.32;;;7.50;99.90;;;;;;10331173;28;20081;-71
2020/12/15 03:07:54;;;;;;;19.67;13.18;;;7.50;99.90;;;;;;10296837;28;20043;-70
2020/12/15 03:12:56;;;;;;;22.67;14.63;;;7.60;99.90;;;;;;10334205;28;20046;-71
2020/12/15 03:17:57;;;;;;;20.20;14.45;;;7.60;99.90;;;;;;10295138;28;20109;-71
2020/12/15 03:22:59;;;;;;;18.10;12.65;;;7.70;99.90;;;;;;10335465;28;20125;-71
2020/12/15 03:28:00;;;;;;;18.80;13.60;;;7.70;99.90;;;;;;10334963;28;20557;-70
2020/12/15 03:33:03;;;;;;;20.88;13.90;;;7.70;99.90;;;;;;10312185;28;20054;-70
2020/12/15 03:38:05;;;;;;;17.85;12.18;;;7.70;99.90;;;;;;10319252;28;20078;-71
2020/12/15 03:43:07;;;;;;;14.13;10.90;;;7.80;99.90;;;;;;10310156;28;20458;-71
2020/12/15 03:48:11;;;;;;;21.35;14.00;;;7.80;99.90;;;;;;10316122;28;20459;-71
2020/12/15 03:53:13;;;;;;;18.58;13.23;;;7.70;99.90;;;;;;10296163;28;20057;-71
2020/12/15 03:58:17;;;;;;;22.63;15.35;;;7.70;99.90;;;;;;10295686;28;20083;-71
2020/12/15 04:03:18;;;;;;;29.52;18.50;;;7.50;99.90;;;;;;10306808;28;20047;-71
2020/12/15 04:08:20;;;;;;;20.98;15.63;;;7.50;99.90;;;;;;10308747;28;20069;-70
2020/12/15 04:13:22;;;;;;;19.00;13.68;;;7.60;99.90;;;;;;10317336;28;20058;-71
2020/12/15 04:18:23;;;;;;;21.40;15.07;;;7.70;99.90;;;;;;10308036;28;20142;-71
2020/12/15 04:23:26;;;;;;;25.63;16.40;;;7.70;99.90;;;;;;10334290;28;20506;-71
2020/12/15 04:28:29;;;;;;;21.88;15.02;;;7.70;99.90;;;;;;10318949;28;20058;-71
2020/12/15 04:33:31;;;;;;;25.40;15.82;;;7.70;99.90;;;;;;10319319;28;20137;-70
2020/12/15 04:38:32;;;;;;;23.38;16.00;;;7.80;99.90;;;;;;10315137;28;20099;-71
2020/12/15 04:43:35;;;;;;;18.80;13.45;;;7.80;99.90;;;;;;10321539;28;20062;-71
2020/12/15 04:48:42;;;;;;;20.17;14.25;;;7.80;99.90;;;;;;10302965;28;20163;-71
2020/12/15 04:53:52;;;;;;;31.30;18.85;;;7.80;99.90;;;;;;10331505;28;20054;-70
2020/12/15 04:58:59;;;;;;;32.03;19.33;;;7.80;99.90;;;;;;10296700;28;20082;-70
2020/12/15 05:04:01;;;;;;;21.10;15.15;;;7.80;99.90;;;;;;10320075;28;20046;-71
2020/12/15 05:09:04;;;;;;;31.85;19.42;;;7.70;99.90;;;;;;10298734;28;20073;-71
2020/12/15 05:14:05;;;;;;;32.47;19.77;;;7.70;99.90;;;;;;10340510;28;20081;-71
2020/12/15 05:19:07;;;;;;;20.30;12.93;;;7.70;99.90;;;;;;10298166;28;20054;-71
2020/12/15 05:24:09;;;;;;;22.48;16.15;;;7.80;99.90;;;;;;10319608;28;20082;-71
2020/12/15 05:29:17;;;;;;;27.40;18.73;;;7.90;99.90;;;;;;10316120;28;20101;-71
2020/12/15 05:34:27;;;;;;;41.58;23.25;;;7.90;99.90;;;;;;10301446;28;20464;-71
2020/12/15 05:39:30;;;;;;;39.70;22.60;;;7.90;99.90;;;;;;10317409;28;20588;-71
2020/12/15 05:44:34;;;;;;;28.10;18.15;;;7.70;99.90;;;;;;10304018;28;20147;-71
2020/12/15 05:49:40;;;;;;;31.45;19.98;;;7.60;99.90;;;;;;10317083;28;20104;-71
2020/12/15 05:54:42;;;;;;;43.13;23.33;;;7.80;99.90;;;;;;10305832;28;20085;-71
2020/12/15 05:59:43;;;;;;;30.33;18.88;;;7.90;99.90;;;;;;10327862;28;20105;-71
2020/12/15 06:04:45;;;;;;;26.52;17.67;;;7.90;99.90;;;;;;10328975;28;20074;-71
2020/12/15 06:09:48;;;;;;;37.25;21.70;;;7.90;99.90;;;;;;10341547;28;20154;-70
2020/12/15 06:14:51;;;;;;;34.97;18.77;;;8.00;99.90;;;;;;10291889;28;20055;-71
2020/12/15 06:19:57;;;;;;;30.05;19.35;;;8.00;99.90;;;;;;10328531;28;20414;-71
2020/12/15 06:24:59;;;;;;;28.85;18.80;;;7.90;99.90;;;;;;10321775;28;20101;-71
2020/12/15 06:30:02;;;;;;;30.95;20.67;;;7.90;99.90;;;;;;10344408;28;20088;-71
2020/12/15 06:35:11;;;;;;;35.08;23.15;;;7.80;99.90;;;;;;10330246;28;20061;-71
2020/12/15 06:40:13;;;;;;;28.02;20.13;;;7.80;99.90;;;;;;10313115;28;20134;-70
2020/12/15 06:45:15;;;;;;;28.60;20.83;;;7.70;99.90;;;;;;10326649;28;20058;-71
2020/12/15 06:50:18;;;;;;;31.63;21.83;;;7.60;99.90;;;;;;10336733;28;20051;-70
2020/12/15 06:55:30;;;;;;;29.95;21.55;;;7.70;99.90;;;;;;10352789;28;20134;-71
2020/12/15 07:00:40;;;;;;;30.23;21.38;;;7.70;99.90;;;;;;10335553;28;20064;-71
2020/12/15 07:05:41;;;;;;;35.60;24.88;;;7.90;99.90;;;;;;10352040;28;20453;-71
2020/12/15 07:10:43;;;;;;;39.63;26.92;;;7.70;99.90;;;;;;10351916;28;20424;-71
2020/12/15 07:15:45;;;;;;;30.38;22.63;;;7.70;99.90;;;;;;10323174;28;20517;-70
2020/12/15 07:20:48;;;;;;;44.50;28.25;;;7.80;99.90;;;;;;10327121;28;20553;-71
2020/12/15 07:25:49;;;;;;;35.90;24.60;;;7.90;99.90;;;;;;10330550;28;20054;-70
2020/12/15 07:30:51;;;;;;;34.83;22.30;;;8.00;99.90;;;;;;10319142;28;20411;-70
2020/12/15 07:35:53;;;;;;;38.28;25.00;;;8.10;99.90;;;;;;10316900;28;20469;-71
2020/12/15 07:40:57;;;;;;;45.55;29.27;;;8.10;99.90;;;;;;10333314;28;20477;-71
2020/12/15 07:45:59;;;;;;;46.30;27.63;;;8.00;99.90;;;;;;10334488;28;20061;-71
2020/12/15 07:51:04;;;;;;;38.15;25.75;;;8.00;99.90;;;;;;10335664;28;20054;-71
2020/12/15 07:56:06;;;;;;;35.55;24.80;;;8.00;99.90;;;;;;10335343;28;20165;-71
2020/12/15 08:01:08;;;;;;;33.20;21.70;;;8.10;99.90;;;;;;10334633;28;20042;-71
2020/12/15 08:06:11;;;;;;;31.50;21.48;;;8.10;99.90;;;;;;10334925;28;20469;-71
2020/12/15 08:11:18;;;;;;;34.17;23.55;;;8.10;99.90;;;;;;10334949;28;20558;-72
2020/12/15 08:16:25;;;;;;;33.58;22.50;;;8.20;99.90;;;;;;10332781;28;20395;-71
2020/12/15 08:21:48;;;;;;;50.08;29.58;;;8.20;99.90;;;;;;10333327;28;20081;-72
2020/12/15 08:26:50;;;;;;;32.65;23.52;;;8.30;99.90;;;;;;10333731;28;20129;-72
2020/12/15 08:31:51;;;;;;;28.67;20.40;;;8.40;99.90;;;;;;10333448;28;20140;-72
2020/12/15 08:36:54;;;;;;;25.88;19.40;;;8.50;99.90;;;;;;10333868;28;20054;-72
2020/12/15 08:41:59;;;;;;;26.55;17.48;;;8.60;99.90;;;;;;10320215;28;20046;-72
2020/12/15 08:47:00;;;;;;;24.13;17.52;;;8.70;99.90;;;;;;10294798;28;20133;-72
2020/12/15 08:52:02;;;;;;;25.02;19.40;;;8.80;99.90;;;;;;10326774;28;20168;-72
2020/12/15 08:57:14;;;;;;;31.98;23.02;;;8.80;99.90;;;;;;10336383;28;20576;-72
2020/12/15 09:02:20;;;;;;;27.80;19.95;;;8.90;99.90;;;;;;10320819;28;20073;-72
2020/12/15 09:07:27;;;;;;;24.88;19.25;;;8.80;99.90;;;;;;10325756;28;20609;-72
2020/12/15 09:12:29;;;;;;;23.52;18.45;;;8.90;99.90;;;;;;10290572;28;20415;-72
2020/12/15 09:17:31;;;;;;;26.60;19.65;;;8.90;99.90;;;;;;10323217;28;20053;-72
2020/12/15 09:22:32;;;;;;;27.58;20.42;;;9.00;99.90;;;;;;10326824;28;20134;-72
2020/12/15 09:27:36;;;;;;;22.70;18.17;;;9.10;99.90;;;;;;10321096;28;20807;-72
2020/12/15 09:32:38;;;;;;;23.55;18.40;;;9.10;99.90;;;;;;10326652;28;20061;-72
2020/12/15 09:37:40;;;;;;;23.25;18.15;;;9.20;99.90;;;;;;10308246;28;20042;-72
2020/12/15 09:42:45;;;;;;;25.23;18.63;;;9.20;99.90;;;;;;10310954;28;20082;-72
2020/12/15 09:47:46;;;;;;;26.58;19.40;;;9.20;99.90;;;;;;10321083;28;20046;-72
2020/12/15 09:52:48;;;;;;;27.42;19.92;;;9.20;99.90;;;;;;10319863;28;20039;-71
2020/12/15 09:57:49;;;;;;;28.85;21.70;;;9.10;99.90;;;;;;10327563;28;20461;-72
2020/12/15 10:02:51;;;;;;;30.25;21.48;;;9.10;99.90;;;;;;10327032;28;20050;-72
2020/12/15 10:07:53;;;;;;;37.25;23.63;;;9.10;99.90;;;;;;10299921;28;20050;-72
2020/12/15 10:12:54;;;;;;;44.28;27.75;;;9.20;99.90;;;;;;10324251;28;20624;-72
2020/12/15 10:17:56;;;;;;;40.13;26.17;;;9.10;99.90;;;;;;10307757;28;20074;-72
2020/12/15 10:22:58;;;;;;;37.75;25.70;;;9.10;99.90;;;;;;10327145;28;20153;-72
2020/12/15 10:27:59;;;;;;;38.17;24.95;;;9.30;99.90;;;;;;10327082;28;20505;-73
2020/12/15 10:33:00;;;;;;;37.80;26.55;;;9.30;99.90;;;;;;10324776;28;20059;-73
2020/12/15 10:38:02;;;;;;;41.03;28.33;;;9.40;99.90;;;;;;10287085;28;20050;-73
2020/12/15 10:43:04;;;;;;;43.30;27.52;;;9.50;99.90;;;;;;10290823;28;20042;-73
2020/12/15 10:48:05;;;;;;;39.05;27.73;;;9.60;99.90;;;;;;10323501;28;20046;-73
2020/12/15 10:53:10;;;;;;;42.08;28.08;;;9.80;99.90;;;;;;10322502;28;20101;-72
2020/12/15 10:58:11;;;;;;;40.65;27.63;;;9.80;99.90;;;;;;10292966;28;20047;-72
2020/12/15 11:03:13;;;;;;;38.08;27.05;;;10.00;99.90;;;;;;10317288;28;20097;-72
2020/12/15 11:08:15;;;;;;;39.80;27.05;;;10.10;99.90;;;;;;10313309;28;20062;-72
2020/12/15 11:13:16;;;;;;;36.25;26.80;;;10.10;99.90;;;;;;10310709;28;20454;-72
2020/12/15 11:18:18;;;;;;;45.13;29.13;;;10.20;99.90;;;;;;10320049;28;20042;-72
2020/12/15 11:23:20;;;;;;;42.53;28.95;;;10.20;99.90;;;;;;10321265;28;20297;-72
2020/12/15 11:28:22;;;;;;;29.25;21.45;;;10.40;99.90;;;;;;10333033;28;20097;-72
2020/12/15 11:33:24;;;;;;;39.67;26.55;;;10.50;99.90;;;;;;10300904;28;20119;-72
2020/12/15 11:38:25;;;;;;;40.92;27.73;;;10.50;99.90;;;;;;10324151;28;20130;-72
2020/12/15 11:43:29;;;;;;;38.88;27.23;;;10.40;99.90;;;;;;10306660;28;20043;-72
2020/12/15 11:48:31;;;;;;;44.60;28.38;;;10.30;99.90;;;;;;10301123;28;20518;-72
2020/12/15 11:53:34;;;;;;;44.05;28.85;;;10.30;99.90;;;;;;10329038;28;20050;-72
2020/12/15 11:58:36;;;;;;;42.80;28.17;;;10.30;99.90;;;;;;10329177;28;20089;-72
2020/12/15 12:03:38;;;;;;;39.00;27.02;;;10.40;99.90;;;;;;10343147;28;20150;-72
2020/12/15 12:08:41;;;;;;;48.03;28.83;;;10.40;99.90;;;;;;10323177;28;20046;-71
2020/12/15 12:13:42;;;;;;;45.72;29.23;;;10.50;99.90;;;;;;10293520;28;20055;-72
2020/12/15 12:18:43;;;;;;;36.13;25.65;;;10.60;99.90;;;;;;10295198;28;20097;-72
2020/12/15 12:23:45;;;;;;;38.80;27.27;;;10.50;99.90;;;;;;10316086;28;20589;-72
2020/12/15 12:28:46;;;;;;;43.63;27.73;;;10.60;99.90;;;;;;10307071;28;20490;-72
2020/12/15 12:33:48;;;;;;;40.30;27.63;;;10.70;99.90;;;;;;10303466;28;20133;-71
2020/12/15 12:38:49;;;;;;;42.58;28.63;;;10.80;99.90;;;;;;10324508;28;20169;-71
2020/12/15 12:43:51;;;;;;;34.17;24.40;;;10.80;99.90;;;;;;10327113;28;20137;-72
2020/12/15 12:48:53;;;;;;;75.70;42.15;;;10.80;99.90;;;;;;10332188;28;20125;-72
2020/12/15 12:53:55;;;;;;;73.25;39.42;;;10.90;99.90;;;;;;10325541;28;20481;-72
2020/12/15 12:58:57;;;;;;;48.33;33.05;;;10.80;99.90;;;;;;10307505;28;20059;-72
2020/12/15 13:03:58;;;;;;;48.08;33.28;;;10.90;99.90;;;;;;10309009;28;20083;-71
2020/12/15 13:09:00;;;;;;;60.78;34.88;;;10.80;99.90;;;;;;10320014;28;20055;-71
2020/12/15 13:14:01;;;;;;;55.00;35.95;;;10.80;99.90;;;;;;10323826;28;20132;-71
2020/12/15 13:19:03;;;;;;;58.65;36.78;;;10.80;99.90;;;;;;10321012;28;20054;-72
2020/12/15 13:24:04;;;;;;;63.60;35.40;;;10.80;99.90;;;;;;10326405;28;20062;-72
2020/12/15 13:29:06;;;;;;;50.22;32.33;;;10.80;99.90;;;;;;10326795;28;20050;-72
2020/12/15 13:34:07;;;;;;;72.25;41.60;;;10.90;99.90;;;;;;10294449;28;20055;-72
2020/12/15 13:39:08;;;;;;;66.68;39.42;;;10.90;99.90;;;;;;10291981;28;20050;-72
2020/12/15 13:44:10;;;;;;;43.25;27.75;;;10.80;99.90;;;;;;10327600;28;20073;-72
2020/12/15 13:49:11;;;;;;;45.38;27.70;;;10.80;99.90;;;;;;10289086;28;20058;-72
2020/12/15 13:54:14;;;;;;;44.85;29.52;;;10.80;99.90;;;;;;10308009;28;20054;-72
2020/12/15 13:59:16;;;;;;;45.58;29.98;;;10.70;99.90;;;;;;10323451;28;20522;-72
2020/12/15 14:04:17;;;;;;;64.40;32.63;;;10.80;99.90;;;;;;10316671;28;20042;-72
2020/12/15 14:09:19;;;;;;;36.97;24.27;;;10.80;99.90;;;;;;10318102;28;20046;-72
2020/12/15 14:14:21;;;;;;;54.17;30.55;;;10.70;99.90;;;;;;10313642;28;20086;-72
2020/12/15 14:19:22;;;;;;;42.40;26.10;;;10.70;99.90;;;;;;10289490;28;20126;-72
2020/12/15 14:24:24;;;;;;;40.67;25.95;;;10.60;99.90;;;;;;10303937;28;20121;-72
2020/12/15 14:29:25;;;;;;;49.97;29.73;;;10.70;99.90;;;;;;10311480;28;20137;-72
2020/12/15 14:34:26;;;;;;;26.67;20.15;;;10.70;99.90;;;;;;10326117;28;20097;-72
2020/12/15 14:39:39;;;;;;;60.38;33.10;;;10.70;99.90;;;;;;10325086;28;20487;-72
2020/12/15 14:44:42;;;;;;;81.57;45.08;;;10.80;99.90;;;;;;10340503;28;20509;-72
2020/12/15 14:49:47;;;;;;;63.40;39.60;;;10.70;99.90;;;;;;10319336;28;20546;-72
2020/12/15 14:54:52;;;;;;;63.78;36.90;;;10.70;99.90;;;;;;10306527;28;20089;-73
2020/12/15 14:59:53;;;;;;;55.05;34.85;;;10.70;99.90;;;;;;10316480;28;20109;-72
2020/12/15 15:04:55;;;;;;;42.83;29.80;;;10.60;99.90;;;;;;10332322;28;20136;-72
2020/12/15 15:09:57;;;;;;;69.63;37.95;;;10.60;99.90;;;;;;10323064;28;20126;-72
2020/12/15 15:14:59;;;;;;;117.80;46.55;;;10.60;99.90;;;;;;10307230;28;20065;-72
2020/12/15 15:20:00;;;;;;;65.25;36.17;;;10.60;99.90;;;;;;10333279;28;20105;-72
2020/12/15 15:25:02;;;;;;;77.47;37.47;;;10.50;99.90;;;;;;10331573;28;20062;-72
2020/12/15 15:30:05;;;;;;;52.50;31.83;;;10.50;99.90;;;;;;10330693;28;20046;-72
2020/12/15 15:35:06;;;;;;;68.97;37.53;;;10.50;99.90;;;;;;10315670;28;20063;-72
2020/12/15 15:40:08;;;;;;;34.33;24.02;;;10.40;99.90;;;;;;10307284;28;20055;-72
2020/12/15 15:45:09;;;;;;;61.40;32.58;;;10.40;99.90;;;;;;10308519;28;20082;-72
2020/12/15 15:50:11;;;;;;;57.42;31.33;;;10.40;99.90;;;;;;10327391;28;20083;-72
2020/12/15 15:55:12;;;;;;;55.83;30.27;;;10.40;99.90;;;;;;10300043;28;20055;-72
2020/12/15 16:00:14;;;;;;;41.70;25.48;;;10.50;99.90;;;;;;10305661;28;20047;-72
2020/12/15 16:05:15;;;;;;;38.53;25.83;;;10.50;99.90;;;;;;10320292;28;20061;-72
2020/12/15 16:10:18;;;;;;;41.92;27.05;;;10.50;99.90;;;;;;10311227;28;20043;-70
2020/12/15 16:15:20;;;;;;;66.85;33.17;;;10.40;99.90;;;;;;10346792;28;20057;-70
2020/12/15 16:20:21;;;;;;;53.80;29.95;;;10.40;99.90;;;;;;10321609;28;20388;-69
2020/12/15 16:25:23;;;;;;;93.63;39.58;;;10.50;99.90;;;;;;10315937;28;20054;-70
2020/12/15 16:30:24;;;;;;;49.47;31.77;;;10.50;99.90;;;;;;10320431;28;20073;-70
2020/12/15 16:35:26;;;;;;;60.65;35.10;;;10.50;99.90;;;;;;10319138;28;20557;-70
2020/12/15 16:40:28;;;;;;;67.65;38.25;;;10.50;99.90;;;;;;10320171;28;20050;-70
2020/12/15 16:45:30;;;;;;;65.10;35.80;;;10.50;99.90;;;;;;10316471;28;20173;-70
2020/12/15 16:50:31;;;;;;;141.30;50.55;;;10.50;99.90;;;;;;10319860;28;20042;-70
2020/12/15 16:55:33;;;;;;;91.63;41.97;;;10.50;99.90;;;;;;10324488;28;20104;-70
2020/12/15 17:00:36;;;;;;;89.18;43.67;;;10.50;99.90;;;;;;10315466;28;20144;-70
2020/12/15 17:05:37;;;;;;;661.30;92.15;;;10.50;99.90;;;;;;10315895;28;20048;-70
2020/12/15 17:10:39;;;;;;;380.90;60.63;;;10.40;99.90;;;;;;10312297;28;20445;-70
2020/12/15 17:15:46;;;;;;;644.55;71.43;;;10.40;99.90;;;;;;10312305;28;20091;-70
2020/12/15 17:20:48;;;;;;;322.42;58.67;;;10.40;99.90;;;;;;10317003;28;20513;-70
2020/12/15 17:25:50;;;;;;;581.97;60.60;;;10.40;99.90;;;;;;10324152;28;20292;-70
2020/12/15 17:30:54;;;;;;;308.83;59.33;;;10.30;99.90;;;;;;10315704;28;20082;-70
2020/12/15 17:35:56;;;;;;;37.53;26.85;;;10.20;99.90;;;;;;10314956;28;20521;-70
2020/12/15 17:40:57;;;;;;;92.93;39.78;;;10.20;99.90;;;;;;10312083;28;20053;-70
2020/12/15 17:45:59;;;;;;;51.35;32.28;;;10.20;99.90;;;;;;10320373;28;20146;-69
2020/12/15 17:51:00;;;;;;;38.03;27.30;;;10.10;99.90;;;;;;10334309;28;20561;-70
2020/12/15 17:56:02;;;;;;;54.63;33.35;;;10.10;99.90;;;;;;10315571;28;20085;-70
2020/12/15 18:01:04;;;;;;;59.13;34.85;;;10.20;99.90;;;;;;10310541;28;20046;-70
2020/12/15 18:06:06;;;;;;;31.67;23.05;;;10.00;99.90;;;;;;10310010;28;20043;-70
2020/12/15 18:11:09;;;;;;;35.78;25.63;;;10.10;99.90;;;;;;10298259;28;20154;-70
2020/12/15 18:16:15;;;;;;;57.10;33.33;;;10.10;99.90;;;;;;10294357;28;20533;-70
2020/12/15 18:21:31;;;;;;;31.27;21.90;;;10.20;99.90;;;;;;10292703;28;20046;-70
2020/12/15 18:26:37;;;;;;;44.67;28.55;;;10.20;99.90;;;;;;10310162;28;20086;-69
2020/12/15 18:31:51;;;;;;;58.58;33.85;;;10.10;99.90;;;;;;10320789;28;20251;-70
2020/12/15 18:36:57;;;;;;;39.25;21.27;;;10.10;99.90;;;;;;10296253;28;20503;-70
2020/12/15 18:42:04;;;;;;;215.70;34.30;;;9.90;99.90;;;;;;10318526;28;20081;-70
2020/12/15 18:47:10;;;;;;;553.30;58.22;;;9.80;99.90;;;;;;10349853;28;20085;-70
2020/12/15 18:52:17;;;;;;;159.40;40.85;;;9.70;99.90;;;;;;10361930;28;20484;-70
2020/12/15 18:57:26;;;;;;;1650.82;99.07;;;9.60;99.90;;;;;;10345904;28;20046;-70
2020/12/15 19:02:32;;;;;;;111.85;28.27;;;9.50;99.90;;;;;;10336995;28;20061;-69
2020/12/15 19:07:39;;;;;;;556.72;58.42;;;9.40;99.90;;;;;;10363252;28;20054;-69
2020/12/15 19:12:45;;;;;;;922.63;68.03;;;9.40;99.90;;;;;;10348161;28;20465;-69
2020/12/15 19:17:51;;;;;;;852.10;78.03;;;9.30;99.90;;;;;;10348307;28;20137;-69
2020/12/15 19:22:53;;;;;;;533.58;64.53;;;9.30;99.90;;;;;;10364989;28;20046;-69
2020/12/15 19:27:59;;;;;;;609.10;59.28;;;9.30;99.90;;;;;;10350650;28;20132;-69
2020/12/15 19:33:05;;;;;;;713.63;83.40;;;9.30;99.90;;;;;;10360420;28;20109;-69
2020/12/15 19:38:14;;;;;;;620.47;71.50;;;9.30;99.90;;;;;;10357217;28;20045;-68
2020/12/15 19:43:20;;;;;;;708.78;85.85;;;9.30;99.90;;;;;;10344082;28;20054;-69
2020/12/15 19:48:27;;;;;;;577.95;73.97;;;9.30;99.90;;;;;;10372284;28;20073;-69
2020/12/15 19:53:33;;;;;;;666.55;69.22;;;9.30;99.90;;;;;;10370850;28;20046;-69
2020/12/15 19:58:35;;;;;;;727.58;68.55;;;9.20;99.90;;;;;;10366876;28;20061;-69
2020/12/15 20:03:37;;;;;;;724.65;78.80;;;9.30;99.90;;;;;;10372499;28;20089;-70
2020/12/15 20:08:38;;;;;;;393.95;50.28;;;9.40;99.90;;;;;;10350740;28;20506;-70
2020/12/15 20:13:41;;;;;;;523.78;59.53;;;9.40;99.90;;;;;;10350153;28;20077;-69
2020/12/15 20:18:48;;;;;;;381.13;40.55;;;9.30;99.90;;;;;;10354702;28;20127;-69
2020/12/15 20:23:49;;;;;;;465.70;64.53;;;9.30;99.90;;;;;;10350040;28;20043;-69
2020/12/15 20:28:56;;;;;;;609.47;79.82;;;9.30;99.90;;;;;;10336775;28;20139;-69
2020/12/15 20:34:05;;;;;;;494.92;66.97;;;9.30;99.90;;;;;;10367814;28;20295;-70
2020/12/15 20:39:13;;;;;;;367.92;51.58;;;9.30;99.90;;;;;;10333412;28;20417;-69
2020/12/15 20:44:20;;;;;;;241.70;35.90;;;9.20;99.90;;;;;;10348816;28;20086;-69
2020/12/15 20:49:27;;;;;;;280.20;46.55;;;9.20;99.90;;;;;;10352853;28;20090;-69
2020/12/15 20:54:33;;;;;;;414.00;36.80;;;9.10;99.90;;;;;;10352746;28;20482;-69
2020/12/15 20:59:35;;;;;;;423.60;45.47;;;9.10;99.90;;;;;;10360796;28;20077;-69
2020/12/15 21:04:41;;;;;;;383.92;51.55;;;9.00;99.90;;;;;;10340040;28;20045;-70
2020/12/15 21:09:51;;;;;;;341.73;47.50;;;8.90;99.90;;;;;;10366828;28;20184;-69
2020/12/15 21:14:58;;;;;;;431.53;44.50;;;8.90;99.90;;;;;;10365486;28;20065;-69
2020/12/15 21:20:04;;;;;;;560.95;47.53;;;8.90;99.90;;;;;;10383423;28;20085;-69
2020/12/15 21:25:11;;;;;;;314.60;35.83;;;8.80;99.90;;;;;;10369561;28;20129;-69
2020/12/15 21:30:17;;;;;;;222.45;30.77;;;8.80;99.90;;;;;;10366955;28;20045;-69
2020/12/15 21:35:24;;;;;;;317.35;45.22;;;8.80;99.90;;;;;;10367589;28;20057;-69
2020/12/15 21:40:25;;;;;;;378.73;50.25;;;8.90;99.90;;;;;;10368876;28;20073;-69
2020/12/15 21:45:40;;;;;;;532.67;48.70;;;8.90;99.90;;;;;;10367494;28;20073;-69
2020/12/15 21:50:42;;;;;;;216.05;27.75;;;8.90;99.90;;;;;;10368428;28;20092;-69
2020/12/15 21:55:44;;;;;;;416.23;35.08;;;8.90;99.90;;;;;;10367876;28;20045;-69
2020/12/15 22:00:46;;;;;;;694.10;51.53;;;8.90;99.90;;;;;;10366173;28;20133;-69
2020/12/15 22:05:47;;;;;;;302.92;30.00;;;8.90;99.90;;;;;;10366746;28;20092;-69
2020/12/15 22:10:49;;;;;;;158.48;21.42;;;8.80;99.90;;;;;;10331981;28;20461;-69
2020/12/15 22:15:53;;;;;;;229.00;24.02;;;8.90;99.90;;;;;;10369097;28;20143;-68
2020/12/15 22:20:55;;;;;;;655.20;45.42;;;8.80;99.90;;;;;;10383726;28;20084;-68
2020/12/15 22:25:56;;;;;;;495.17;39.97;;;8.70;99.90;;;;;;10351565;28;20060;-69
2020/12/15 22:30:58;;;;;;;269.15;25.15;;;8.70;99.90;;;;;;10348062;28;20046;-69
2020/12/15 22:35:59;;;;;;;235.20;22.92;;;8.70;99.90;;;;;;10360055;28;20493;-69
2020/12/15 22:41:11;;;;;;;351.48;26.45;;;8.60;99.90;;;;;;10382941;28;20053;-69
2020/12/15 22:46:18;;;;;;;291.95;29.38;;;8.60;99.90;;;;;;10350942;28;20054;-69
2020/12/15 22:51:20;;;;;;;424.35;28.45;;;8.60;99.90;;;;;;10331160;28;20521;-69
2020/12/15 22:56:22;;;;;;;281.42;28.73;;;8.40;99.90;;;;;;10329167;28;20054;-69
2020/12/15 23:01:24;;;;;;;193.98;32.22;;;8.30;99.90;;;;;;10342560;28;20481;-69
2020/12/15 23:06:26;;;;;;;219.80;24.98;;;8.30;99.90;;;;;;10367269;28;20054;-69
2020/12/15 23:11:27;;;;;;;473.13;30.65;;;8.30;99.90;;;;;;10355241;28;20383;-69
2020/12/15 23:16:29;;;;;;;378.23;24.92;;;8.30;99.90;;;;;;10371063;28;20510;-69
2020/12/15 23:21:34;;;;;;;425.65;24.40;;;8.30;99.90;;;;;;10378310;28;20100;-69
2020/12/15 23:26:38;;;;;;;331.98;20.67;;;8.30;99.90;;;;;;10392655;28;20052;-68
2020/12/15 23:31:40;;;;;;;440.38;24.77;;;8.30;99.90;;;;;;10377325;28;20541;-69
2020/12/15 23:36:41;;;;;;;322.05;21.23;;;8.20;99.90;;;;;;10373407;28;20088;-69
2020/12/15 23:41:43;;;;;;;460.02;29.33;;;8.10;99.90;;;;;;10359228;28;20124;-69
2020/12/15 23:46:49;;;;;;;308.10;20.15;;;8.10;99.90;;;;;;10372477;28;20054;-69
2020/12/15 23:51:52;;;;;;;365.10;20.55;;;8.10;99.90;;;;;;10363913;28;20677;-69
2020/12/15 23:56:54;;;;;;;269.48;15.15;;;8.10;99.90;;;;;;10364970;28;20138;-69
